sensor_id;sensor_type;location;lat;lon;timestamp;pressure;altitude;pressure_sealevel;temperature;humidity
65659;BME280;60181;53.258;6.932;2023-03-03T00:02:47;102739.58;;;12.13;54.58
65659;BME280;60181;53.258;6.932;2023-03-03T00:06:51;102738.04;;;12.11;54.59
65659;BME280;60181;53.258;6.932;2023-03-03T00:10:55;102737.84;;;12.10;54.64
65659;BME280;60181;53.258;6.932;2023-03-03T00:14:59;102738.09;;;12.10;54.62
65659;BME280;60181;53.258;6.932;2023-03-03T00:19:11;102736.23;;;12.09;54.76
65659;BME280;60181;53.258;6.932;2023-03-03T00:27:21;102731.92;;;12.10;55.74
65659;BME280;60181;53.258;6.932;2023-03-03T00:31:19;102730.07;;;12.09;54.77
65659;BME280;60181;53.258;6.932;2023-03-03T00:35:23;102729.75;;;12.07;54.95
65659;BME280;60181;53.258;6.932;2023-03-03T00:39:26;102729.03;;;12.06;54.95
65659;BME280;60181;53.258;6.932;2023-03-03T00:43:31;102729.39;;;12.05;54.93
65659;BME280;60181;53.258;6.932;2023-03-03T00:47:35;102729.65;;;12.04;55.01
65659;BME280;60181;53.258;6.932;2023-03-03T00:51:35;102729.44;;;12.03;54.94
65659;BME280;60181;53.258;6.932;2023-03-03T00:55:39;102729.20;;;12.03;54.95
65659;BME280;60181;53.258;6.932;2023-03-03T00:59:43;102728.63;;;12.06;54.97
65659;BME280;60181;53.258;6.932;2023-03-03T01:03:47;102726.78;;;12.09;54.76
65659;BME280;60181;53.258;6.932;2023-03-03T01:07:51;102724.61;;;12.09;54.96
65659;BME280;60181;53.258;6.932;2023-03-03T01:11:55;102723.03;;;12.08;55.18
65659;BME280;60181;53.258;6.932;2023-03-03T01:16:00;102720.72;;;12.07;54.95
65659;BME280;60181;53.258;6.932;2023-03-03T01:20:04;102717.98;;;12.08;54.96
65659;BME280;60181;53.258;6.932;2023-03-03T01:24:07;102715.66;;;12.10;54.82
65659;BME280;60181;53.258;6.932;2023-03-03T01:28:11;102715.28;;;12.09;54.85
65659;BME280;60181;53.258;6.932;2023-03-03T01:32:15;102714.62;;;12.09;54.86
65659;BME280;60181;53.258;6.932;2023-03-03T01:36:23;102713.57;;;12.11;54.81
65659;BME280;60181;53.258;6.932;2023-03-03T01:40:25;102713.88;;;12.11;54.88
65659;BME280;60181;53.258;6.932;2023-03-03T01:44:27;102714.07;;;12.11;54.92
65659;BME280;60181;53.258;6.932;2023-03-03T01:48:32;102714.28;;;12.09;55.25
65659;BME280;60181;53.258;6.932;2023-03-03T01:52:37;102713.76;;;12.06;55.19
65659;BME280;60181;53.258;6.932;2023-03-03T01:56:40;102713.22;;;12.06;55.10
65659;BME280;60181;53.258;6.932;2023-03-03T02:00:44;102712.18;;;12.06;54.83
65659;BME280;60181;53.258;6.932;2023-03-03T02:04:48;102709.95;;;12.04;54.77
65659;BME280;60181;53.258;6.932;2023-03-03T02:12:56;102709.61;;;12.01;54.29
65659;BME280;60181;53.258;6.932;2023-03-03T02:16:59;102709.53;;;11.99;54.32
65659;BME280;60181;53.258;6.932;2023-03-03T02:21:09;102709.53;;;11.98;54.37
65659;BME280;60181;53.258;6.932;2023-03-03T02:25:07;102709.25;;;11.96;54.30
65659;BME280;60181;53.258;6.932;2023-03-03T02:29:11;102709.03;;;11.95;54.08
65659;BME280;60181;53.258;6.932;2023-03-03T02:33:15;102709.42;;;11.93;53.98
65659;BME280;60181;53.258;6.932;2023-03-03T02:37:19;102709.39;;;11.91;53.85
65659;BME280;60181;53.258;6.932;2023-03-03T02:41:31;102709.72;;;11.89;53.73
65659;BME280;60181;53.258;6.932;2023-03-03T02:45:27;102708.94;;;11.88;53.70
65659;BME280;60181;53.258;6.932;2023-03-03T02:49:33;102709.38;;;11.88;53.52
65659;BME280;60181;53.258;6.932;2023-03-03T02:53:35;102709.72;;;11.86;53.31
65659;BME280;60181;53.258;6.932;2023-03-03T02:57:39;102710.83;;;11.84;53.16
65659;BME280;60181;53.258;6.932;2023-03-03T03:01:43;102711.21;;;11.82;53.10
65659;BME280;60181;53.258;6.932;2023-03-03T03:05:47;102711.33;;;11.81;52.77
65659;BME280;60181;53.258;6.932;2023-03-03T03:09:51;102710.84;;;11.79;52.67
65659;BME280;60181;53.258;6.932;2023-03-03T03:13:55;102710.35;;;11.77;52.73
65659;BME280;60181;53.258;6.932;2023-03-03T03:17:59;102710.39;;;11.74;52.53
65659;BME280;60181;53.258;6.932;2023-03-03T03:22:03;102711.17;;;11.72;52.42
65659;BME280;60181;53.258;6.932;2023-03-03T03:26:07;102711.30;;;11.70;52.24
65659;BME280;60181;53.258;6.932;2023-03-03T03:30:11;102711.78;;;11.69;52.49
65659;BME280;60181;53.258;6.932;2023-03-03T03:34:15;102711.88;;;11.68;52.28
65659;BME280;60181;53.258;6.932;2023-03-03T03:38:19;102711.66;;;11.64;52.29
65659;BME280;60181;53.258;6.932;2023-03-03T03:42:23;102711.36;;;11.61;52.21
65659;BME280;60181;53.258;6.932;2023-03-03T03:46:27;102710.05;;;11.59;51.98
65659;BME280;60181;53.258;6.932;2023-03-03T03:50:31;102709.11;;;11.57;51.85
65659;BME280;60181;53.258;6.932;2023-03-03T03:54:35;102707.97;;;11.55;51.81
65659;BME280;60181;53.258;6.932;2023-03-03T03:58:40;102705.90;;;11.53;51.68
65659;BME280;60181;53.258;6.932;2023-03-03T04:02:43;102705.09;;;11.52;51.65
65659;BME280;60181;53.258;6.932;2023-03-03T04:06:47;102704.11;;;11.50;51.43
65659;BME280;60181;53.258;6.932;2023-03-03T04:10:51;102702.69;;;11.49;51.27
65659;BME280;60181;53.258;6.932;2023-03-03T04:14:55;102701.23;;;11.47;51.12
65659;BME280;60181;53.258;6.932;2023-03-03T04:18:59;102700.76;;;11.46;51.09
65659;BME280;60181;53.258;6.932;2023-03-03T04:23:03;102700.39;;;11.44;51.00
65659;BME280;60181;53.258;6.932;2023-03-03T04:27:07;102699.61;;;11.42;50.86
65659;BME280;60181;53.258;6.932;2023-03-03T04:31:11;102699.83;;;11.39;50.86
65659;BME280;60181;53.258;6.932;2023-03-03T04:35:15;102700.11;;;11.37;50.72
65659;BME280;60181;53.258;6.932;2023-03-03T04:39:19;102699.32;;;11.35;50.54
65659;BME280;60181;53.258;6.932;2023-03-03T04:43:23;102698.79;;;11.33;50.30
65659;BME280;60181;53.258;6.932;2023-03-03T04:47:27;102698.51;;;11.30;50.29
65659;BME280;60181;53.258;6.932;2023-03-03T04:51:31;102699.13;;;11.28;50.11
65659;BME280;60181;53.258;6.932;2023-03-03T04:55:35;102699.56;;;11.27;50.09
65659;BME280;60181;53.258;6.932;2023-03-03T04:59:39;102698.45;;;11.27;50.11
65659;BME280;60181;53.258;6.932;2023-03-03T05:03:43;102697.55;;;11.25;50.04
65659;BME280;60181;53.258;6.932;2023-03-03T05:07:47;102695.35;;;11.23;50.02
65659;BME280;60181;53.258;6.932;2023-03-03T05:11:51;102693.12;;;11.22;50.13
65659;BME280;60181;53.258;6.932;2023-03-03T05:15:55;102691.16;;;11.21;50.01
65659;BME280;60181;53.258;6.932;2023-03-03T05:19:59;102690.42;;;11.19;49.83
65659;BME280;60181;53.258;6.932;2023-03-03T05:24:03;102689.16;;;11.17;49.72
65659;BME280;60181;53.258;6.932;2023-03-03T05:28:08;102688.56;;;11.18;50.25
65659;BME280;60181;53.258;6.932;2023-03-03T05:32:11;102687.96;;;11.23;49.22
65659;BME280;60181;53.258;6.932;2023-03-03T05:36:15;102687.28;;;11.22;50.98
65659;BME280;60181;53.258;6.932;2023-03-03T05:40:19;102686.71;;;11.21;49.53
65659;BME280;60181;53.258;6.932;2023-03-03T05:44:23;102685.58;;;11.21;49.45
65659;BME280;60181;53.258;6.932;2023-03-03T05:48:27;102684.64;;;11.26;50.22
65659;BME280;60181;53.258;6.932;2023-03-03T05:52:31;102684.22;;;11.43;49.72
65659;BME280;60181;53.258;6.932;2023-03-03T05:56:35;102683.48;;;11.64;49.79
65659;BME280;60181;53.258;6.932;2023-03-03T06:00:39;102682.74;;;11.81;50.27
65659;BME280;60181;53.258;6.932;2023-03-03T06:04:43;102683.04;;;11.94;50.68
65659;BME280;60181;53.258;6.932;2023-03-03T06:08:47;102682.65;;;12.05;50.94
65659;BME280;60181;53.258;6.932;2023-03-03T06:12:51;102682.78;;;12.14;51.29
65659;BME280;60181;53.258;6.932;2023-03-03T06:16:55;102684.52;;;12.21;51.48
65659;BME280;60181;53.258;6.932;2023-03-03T06:20:59;102686.87;;;12.26;51.72
65659;BME280;60181;53.258;6.932;2023-03-03T06:25:03;102690.05;;;12.31;51.95
65659;BME280;60181;53.258;6.932;2023-03-03T06:29:07;102692.31;;;12.35;52.16
65659;BME280;60181;53.258;6.932;2023-03-03T06:33:11;102695.24;;;12.38;52.28
65659;BME280;60181;53.258;6.932;2023-03-03T06:37:15;102700.24;;;12.41;52.52
65659;BME280;60181;53.258;6.932;2023-03-03T06:41:19;102704.81;;;12.43;52.61
65659;BME280;60181;53.258;6.932;2023-03-03T06:45:23;102710.55;;;12.46;52.75
65659;BME280;60181;53.258;6.932;2023-03-03T06:49:27;102715.67;;;12.48;52.89
65659;BME280;60181;53.258;6.932;2023-03-03T06:53:31;102720.21;;;12.50;52.99
65659;BME280;60181;53.258;6.932;2023-03-03T07:05:43;102731.76;;;12.59;53.24
65659;BME280;60181;53.258;6.932;2023-03-03T07:09:54;102734.81;;;12.63;53.51
65659;BME280;60181;53.258;6.932;2023-03-03T07:13:51;102736.55;;;12.66;53.70
65659;BME280;60181;53.258;6.932;2023-03-03T07:17:55;102739.01;;;12.69;53.83
65659;BME280;60181;53.258;6.932;2023-03-03T07:22:00;102741.92;;;12.72;53.87
65659;BME280;60181;53.258;6.932;2023-03-03T07:26:03;102743.13;;;12.73;54.08
65659;BME280;60181;53.258;6.932;2023-03-03T07:30:17;102744.24;;;12.72;54.17
65659;BME280;60181;53.258;6.932;2023-03-03T07:50:27;102750.38;;;12.73;54.80
65659;BME280;60181;53.258;6.932;2023-03-03T07:54:34;102750.39;;;12.72;54.82
65659;BME280;60181;53.258;6.932;2023-03-03T07:58:36;102751.27;;;12.70;54.84
65659;BME280;60181;53.258;6.932;2023-03-03T08:06:43;102755.77;;;12.68;54.79
65659;BME280;60181;53.258;6.932;2023-03-03T08:10:48;102757.74;;;12.67;54.76
65659;BME280;60181;53.258;6.932;2023-03-03T08:14:51;102759.80;;;12.68;54.71
65659;BME280;60181;53.258;6.932;2023-03-03T08:18:55;102760.66;;;12.68;54.61
65659;BME280;60181;53.258;6.932;2023-03-03T08:22:59;102761.46;;;12.70;54.56
65659;BME280;60181;53.258;6.932;2023-03-03T08:27:03;102762.01;;;12.71;54.48
65659;BME280;60181;53.258;6.932;2023-03-03T08:31:07;102762.71;;;12.73;54.35
65659;BME280;60181;53.258;6.932;2023-03-03T08:35:11;102762.38;;;12.76;54.18
65659;BME280;60181;53.258;6.932;2023-03-03T08:39:15;102761.49;;;12.80;53.97
65659;BME280;60181;53.258;6.932;2023-03-03T08:43:19;102761.67;;;12.85;53.64
65659;BME280;60181;53.258;6.932;2023-03-03T08:47:23;102761.23;;;12.90;53.65
65659;BME280;60181;53.258;6.932;2023-03-03T08:51:27;102762.62;;;13.17;53.91
65659;BME280;60181;53.258;6.932;2023-03-03T08:55:31;102762.94;;;13.43;54.28
65659;BME280;60181;53.258;6.932;2023-03-03T08:59:35;102763.18;;;13.47;55.52
65659;BME280;60181;53.258;6.932;2023-03-03T09:03:39;102764.90;;;13.43;55.81
65659;BME280;60181;53.258;6.932;2023-03-03T09:07:43;102765.93;;;13.37;56.10
65659;BME280;60181;53.258;6.932;2023-03-03T09:11:47;102768.09;;;13.32;56.19
65659;BME280;60181;53.258;6.932;2023-03-03T09:15:51;102768.86;;;13.26;56.23
65659;BME280;60181;53.258;6.932;2023-03-03T09:19:57;102768.80;;;13.22;56.20
65659;BME280;60181;53.258;6.932;2023-03-03T09:23:59;102769.87;;;13.18;56.15
65659;BME280;60181;53.258;6.932;2023-03-03T09:28:04;102769.36;;;13.16;56.07
65659;BME280;60181;53.258;6.932;2023-03-03T09:36:18;102768.97;;;13.15;55.90
65659;BME280;60181;53.258;6.932;2023-03-03T09:44:41;102767.87;;;13.34;55.08
65659;BME280;60181;53.258;6.932;2023-03-03T09:48:31;102767.72;;;13.39;55.41
65659;BME280;60181;53.258;6.932;2023-03-03T09:56:38;102767.14;;;13.44;55.80
65659;BME280;60181;53.258;6.932;2023-03-03T10:00:43;102766.91;;;13.45;55.87
65659;BME280;60181;53.258;6.932;2023-03-03T10:08:49;102767.90;;;13.49;55.71
65659;BME280;60181;53.258;6.932;2023-03-03T10:12:54;102767.82;;;13.51;55.62
65659;BME280;60181;53.258;6.932;2023-03-03T10:21:03;102768.70;;;13.55;55.57
65659;BME280;60181;53.258;6.932;2023-03-03T10:29:07;102768.98;;;13.58;55.54
65659;BME280;60181;53.258;6.932;2023-03-03T10:33:09;102768.08;;;13.60;55.55
65659;BME280;60181;53.258;6.932;2023-03-03T10:41:27;102768.46;;;13.64;55.21
65659;BME280;60181;53.258;6.932;2023-03-03T10:57:36;102768.01;;;13.83;55.57
65659;BME280;60181;53.258;6.932;2023-03-03T11:01:55;102767.27;;;13.84;55.52
65659;BME280;60181;53.258;6.932;2023-03-03T11:05:50;102766.77;;;13.83;55.57
65659;BME280;60181;53.258;6.932;2023-03-03T11:09:49;102766.50;;;13.81;55.69
65659;BME280;60181;53.258;6.932;2023-03-03T11:13:55;102767.11;;;13.80;55.73
65659;BME280;60181;53.258;6.932;2023-03-03T11:17:53;102766.94;;;13.78;55.70
65659;BME280;60181;53.258;6.932;2023-03-03T11:22:01;102767.26;;;13.78;55.67
65659;BME280;60181;53.258;6.932;2023-03-03T11:26:13;102767.40;;;13.79;55.62
65659;BME280;60181;53.258;6.932;2023-03-03T11:30:08;102768.31;;;13.79;55.74
65659;BME280;60181;53.258;6.932;2023-03-03T11:38:24;102769.68;;;13.80;55.79
65659;BME280;60181;53.258;6.932;2023-03-03T11:42:24;102770.00;;;13.80;55.83
65659;BME280;60181;53.258;6.932;2023-03-03T11:46:24;102770.74;;;13.80;55.87
65659;BME280;60181;53.258;6.932;2023-03-03T11:50:35;102771.25;;;13.81;55.85
65659;BME280;60181;53.258;6.932;2023-03-03T11:58:31;102768.63;;;13.82;55.76
65659;BME280;60181;53.258;6.932;2023-03-03T12:10:54;102764.25;;;13.86;55.84
65659;BME280;60181;53.258;6.932;2023-03-03T12:14:54;102761.79;;;13.88;55.82
65659;BME280;60181;53.258;6.932;2023-03-03T12:19:06;102758.22;;;13.89;55.91
65659;BME280;60181;53.258;6.932;2023-03-03T12:23:00;102755.22;;;13.90;55.92
65659;BME280;60181;53.258;6.932;2023-03-03T12:27:16;102752.88;;;13.91;55.96
65659;BME280;60181;53.258;6.932;2023-03-03T12:31:13;102750.38;;;13.92;55.90
65659;BME280;60181;53.258;6.932;2023-03-03T12:35:19;102747.12;;;13.93;55.99
65659;BME280;60181;53.258;6.932;2023-03-03T12:39:29;102744.65;;;13.94;56.08
65659;BME280;60181;53.258;6.932;2023-03-03T12:47:26;102739.92;;;13.94;56.10
65659;BME280;60181;53.258;6.932;2023-03-03T12:51:36;102737.51;;;13.96;55.96
65659;BME280;60181;53.258;6.932;2023-03-03T12:55:45;102735.05;;;13.97;55.94
65659;BME280;60181;53.258;6.932;2023-03-03T13:07:46;102723.36;;;14.00;56.10
65659;BME280;60181;53.258;6.932;2023-03-03T13:11:52;102719.42;;;14.00;56.16
65659;BME280;60181;53.258;6.932;2023-03-03T13:19:55;102713.53;;;14.01;56.23
65659;BME280;60181;53.258;6.932;2023-03-03T13:24:10;102711.47;;;14.01;56.28
65659;BME280;60181;53.258;6.932;2023-03-03T13:27:59;102709.41;;;14.01;56.30
65659;BME280;60181;53.258;6.932;2023-03-03T13:32:13;102705.14;;;14.03;56.09
65659;BME280;60181;53.258;6.932;2023-03-03T13:36:08;102700.90;;;14.05;56.15
65659;BME280;60181;53.258;6.932;2023-03-03T13:40:17;102696.80;;;14.14;57.12
65659;BME280;60181;53.258;6.932;2023-03-03T13:44:24;102693.26;;;14.20;57.06
65659;BME280;60181;53.258;6.932;2023-03-03T13:48:34;102689.84;;;14.21;57.19
65659;BME280;60181;53.258;6.932;2023-03-03T13:52:23;102686.43;;;14.20;57.06
65659;BME280;60181;53.258;6.932;2023-03-03T14:04:41;102676.21;;;14.15;57.35
65659;BME280;60181;53.258;6.932;2023-03-03T14:12:46;102671.91;;;14.12;57.37
65659;BME280;60181;53.258;6.932;2023-03-03T14:16:50;102670.34;;;14.10;57.44
65659;BME280;60181;53.258;6.932;2023-03-03T14:20:51;102667.81;;;14.09;57.46
65659;BME280;60181;53.258;6.932;2023-03-03T14:37:26;102652.98;;;14.03;57.50
65659;BME280;60181;53.258;6.932;2023-03-03T14:41:14;102647.91;;;14.03;57.55
65659;BME280;60181;53.258;6.932;2023-03-03T14:45:18;102643.04;;;14.02;57.54
65659;BME280;60181;53.258;6.932;2023-03-03T14:49:30;102638.64;;;14.01;57.58
65659;BME280;60181;53.258;6.932;2023-03-03T14:57:39;102633.15;;;14.01;57.58
65659;BME280;60181;53.258;6.932;2023-03-03T15:01:33;102631.35;;;14.01;57.61
65659;BME280;60181;53.258;6.932;2023-03-03T15:05:34;102630.19;;;14.01;57.63
65659;BME280;60181;53.258;6.932;2023-03-03T15:09:39;102629.03;;;14.01;57.65
65659;BME280;60181;53.258;6.932;2023-03-03T15:13:42;102627.14;;;14.00;57.69
65659;BME280;60181;53.258;6.932;2023-03-03T15:17:53;102625.40;;;14.00;57.74
65659;BME280;60181;53.258;6.932;2023-03-03T15:22:00;102623.50;;;14.00;57.73
65659;BME280;60181;53.258;6.932;2023-03-03T15:25:58;102621.25;;;14.00;57.76
65659;BME280;60181;53.258;6.932;2023-03-03T15:30:09;102617.93;;;13.99;57.77
65659;BME280;60181;53.258;6.932;2023-03-03T15:38:11;102611.82;;;13.98;57.82
65659;BME280;60181;53.258;6.932;2023-03-03T15:42:14;102606.85;;;13.97;58.40
65659;BME280;60181;53.258;6.932;2023-03-03T15:46:18;102602.78;;;13.99;57.97
65659;BME280;60181;53.258;6.932;2023-03-03T15:54:29;102594.71;;;14.00;58.02
65659;BME280;60181;53.258;6.932;2023-03-03T15:58:39;102592.08;;;13.99;58.11
65659;BME280;60181;53.258;6.932;2023-03-03T16:02:42;102589.40;;;13.98;58.13
65659;BME280;60181;53.258;6.932;2023-03-03T16:06:44;102587.00;;;13.98;58.21
65659;BME280;60181;53.258;6.932;2023-03-03T16:31:05;102582.98;;;13.94;58.27
65659;BME280;60181;53.258;6.932;2023-03-03T16:35:16;102583.11;;;13.94;58.29
65659;BME280;60181;53.258;6.932;2023-03-03T16:39:11;102584.42;;;13.94;58.30
65659;BME280;60181;53.258;6.932;2023-03-03T16:43:21;102585.99;;;13.94;58.34
65659;BME280;60181;53.258;6.932;2023-03-03T16:51:20;102590.94;;;13.94;58.30
65659;BME280;60181;53.258;6.932;2023-03-03T16:55:31;102593.40;;;13.93;58.35
65659;BME280;60181;53.258;6.932;2023-03-03T17:03:39;102596.98;;;13.93;58.42
65659;BME280;60181;53.258;6.932;2023-03-03T17:07:46;102598.88;;;13.92;58.45
65659;BME280;60181;53.258;6.932;2023-03-03T17:11:47;102600.65;;;13.92;58.48
65659;BME280;60181;53.258;6.932;2023-03-03T17:19:54;102604.85;;;13.91;58.52
65659;BME280;60181;53.258;6.932;2023-03-03T17:32:05;102611.54;;;13.94;58.41
65659;BME280;60181;53.258;6.932;2023-03-03T17:40:16;102616.39;;;13.93;58.50
65659;BME280;60181;53.258;6.932;2023-03-03T17:44:24;102617.94;;;13.93;58.51
65659;BME280;60181;53.258;6.932;2023-03-03T18:00:30;102624.87;;;13.93;58.55
65659;BME280;60181;53.258;6.932;2023-03-03T18:04:38;102626.84;;;13.93;58.57
65659;BME280;60181;53.258;6.932;2023-03-03T18:20:56;102628.91;;;13.93;58.61
65659;BME280;60181;53.258;6.932;2023-03-03T18:24:53;102629.15;;;13.94;58.63
65659;BME280;60181;53.258;6.932;2023-03-03T18:33:00;102629.74;;;13.94;58.63
65659;BME280;60181;53.258;6.932;2023-03-03T18:41:10;102629.91;;;13.94;58.66
65659;BME280;60181;53.258;6.932;2023-03-03T18:49:14;102630.35;;;13.94;58.70
65659;BME280;60181;53.258;6.932;2023-03-03T18:53:27;102629.91;;;13.94;58.66
65659;BME280;60181;53.258;6.932;2023-03-03T18:57:22;102630.90;;;13.94;58.66
65659;BME280;60181;53.258;6.932;2023-03-03T19:01:33;102631.54;;;13.94;58.64
65659;BME280;60181;53.258;6.932;2023-03-03T19:05:36;102632.37;;;13.94;58.71
65659;BME280;60181;53.258;6.932;2023-03-03T19:09:43;102631.71;;;13.93;58.68
65659;BME280;60181;53.258;6.932;2023-03-03T19:13:39;102631.87;;;13.93;58.71
65659;BME280;60181;53.258;6.932;2023-03-03T19:17:43;102632.86;;;13.93;58.72
65659;BME280;60181;53.258;6.932;2023-03-03T19:21:47;102633.31;;;13.93;58.72
65659;BME280;60181;53.258;6.932;2023-03-03T19:29:59;102635.05;;;14.00;58.56
65659;BME280;60181;53.258;6.932;2023-03-03T19:34:01;102636.24;;;14.01;58.91
65659;BME280;60181;53.258;6.932;2023-03-03T19:38:19;102638.34;;;14.00;59.03
65659;BME280;60181;53.258;6.932;2023-03-03T19:50:20;102644.07;;;13.99;59.10
65659;BME280;60181;53.258;6.932;2023-03-03T19:54:33;102646.41;;;13.98;59.08
65659;BME280;60181;53.258;6.932;2023-03-03T19:58:34;102646.83;;;13.98;59.08
65659;BME280;60181;53.258;6.932;2023-03-03T20:02:34;102648.55;;;13.98;59.09
65659;BME280;60181;53.258;6.932;2023-03-03T20:06:42;102650.60;;;13.98;59.08
65659;BME280;60181;53.258;6.932;2023-03-03T20:14:47;102655.87;;;13.98;59.04
65659;BME280;60181;53.258;6.932;2023-03-03T20:18:47;102658.02;;;13.98;59.03
65659;BME280;60181;53.258;6.932;2023-03-03T20:26:57;102661.15;;;13.98;59.02
65659;BME280;60181;53.258;6.932;2023-03-03T20:39:11;102664.49;;;14.12;58.69
65659;BME280;60181;53.258;6.932;2023-03-03T20:51:21;102666.20;;;14.16;59.44
65659;BME280;60181;53.258;6.932;2023-03-03T21:03:32;102667.57;;;14.11;59.49
65659;BME280;60181;53.258;6.932;2023-03-03T21:07:29;102667.81;;;14.09;59.45
65659;BME280;60181;53.258;6.932;2023-03-03T21:15:37;102668.21;;;14.09;59.43
65659;BME280;60181;53.258;6.932;2023-03-03T21:19:41;102668.96;;;14.07;57.75
65659;BME280;60181;53.258;6.932;2023-03-03T21:23:45;102669.47;;;13.96;57.42
65659;BME280;60181;53.258;6.932;2023-03-03T21:27:49;102670.29;;;13.85;57.48
65659;BME280;60181;53.258;6.932;2023-03-03T21:32:00;102671.62;;;13.75;57.01
65659;BME280;60181;53.258;6.932;2023-03-03T21:35:57;102672.88;;;13.67;56.88
65659;BME280;60181;53.258;6.932;2023-03-03T21:40:15;102673.23;;;13.60;56.80
65659;BME280;60181;53.258;6.932;2023-03-03T21:44:27;102673.14;;;13.54;56.65
65659;BME280;60181;53.258;6.932;2023-03-03T21:48:09;102672.97;;;13.49;56.19
65659;BME280;60181;53.258;6.932;2023-03-03T21:52:14;102672.69;;;13.44;55.33
65659;BME280;60181;53.258;6.932;2023-03-03T21:56:17;102673.23;;;13.40;55.80
65659;BME280;60181;53.258;6.932;2023-03-03T22:00:22;102674.40;;;13.37;55.41
65659;BME280;60181;53.258;6.932;2023-03-03T22:04:25;102674.33;;;13.34;54.85
65659;BME280;60181;53.258;6.932;2023-03-03T22:08:29;102673.02;;;13.31;54.80
65659;BME280;60181;53.258;6.932;2023-03-03T22:12:33;102673.93;;;13.29;54.85
65659;BME280;60181;53.258;6.932;2023-03-03T22:16:38;102673.41;;;13.29;54.69
65659;BME280;60181;53.258;6.932;2023-03-03T22:20:41;102673.54;;;13.28;54.73
65659;BME280;60181;53.258;6.932;2023-03-03T22:24:45;102673.51;;;13.26;54.51
65659;BME280;60181;53.258;6.932;2023-03-03T22:28:49;102673.49;;;13.23;54.40
65659;BME280;60181;53.258;6.932;2023-03-03T22:32:53;102673.61;;;13.22;54.41
65659;BME280;60181;53.258;6.932;2023-03-03T22:36:57;102672.86;;;13.22;54.02
65659;BME280;60181;53.258;6.932;2023-03-03T22:41:01;102671.44;;;13.20;53.71
65659;BME280;60181;53.258;6.932;2023-03-03T22:45:06;102670.36;;;13.18;53.85
65659;BME280;60181;53.258;6.932;2023-03-03T22:49:09;102668.51;;;13.17;53.74
65659;BME280;60181;53.258;6.932;2023-03-03T22:53:13;102666.42;;;13.16;53.85
65659;BME280;60181;53.258;6.932;2023-03-03T22:57:17;102664.32;;;13.16;53.85
65659;BME280;60181;53.258;6.932;2023-03-03T23:01:21;102661.32;;;13.14;53.78
65659;BME280;60181;53.258;6.932;2023-03-03T23:05:25;102658.13;;;13.13;53.65
65659;BME280;60181;53.258;6.932;2023-03-03T23:09:29;102656.64;;;13.13;53.79
65659;BME280;60181;53.258;6.932;2023-03-03T23:13:33;102655.43;;;13.12;53.25
65659;BME280;60181;53.258;6.932;2023-03-03T23:17:41;102654.57;;;13.11;53.32
65659;BME280;60181;53.258;6.932;2023-03-03T23:21:41;102654.37;;;13.12;53.36
65659;BME280;60181;53.258;6.932;2023-03-03T23:25:45;102652.84;;;13.11;53.62
65659;BME280;60181;53.258;6.932;2023-03-03T23:29:49;102651.64;;;13.10;53.83
65659;BME280;60181;53.258;6.932;2023-03-03T23:33:53;102650.20;;;13.09;53.68
65659;BME280;60181;53.258;6.932;2023-03-03T23:37:57;102649.23;;;13.08;53.79
65659;BME280;60181;53.258;6.932;2023-03-03T23:42:01;102649.08;;;13.06;53.67
65659;BME280;60181;53.258;6.932;2023-03-03T23:46:05;102648.58;;;13.04;53.55
65659;BME280;60181;53.258;6.932;2023-03-03T23:50:10;102648.32;;;13.02;53.17
65659;BME280;60181;53.258;6.932;2023-03-03T23:54:13;102647.11;;;13.01;53.33
65659;BME280;60181;53.258;6.932;2023-03-03T23:58:17;102646.75;;;12.99;53.29
